sensor_id;sensor_type;location;lat;lon;timestamp;temperature;humidity
27492;DHT22;14927;51.210;6.838;2023-03-01T00:01:08;6.80;45.50
27492;DHT22;14927;51.210;6.838;2023-03-01T00:03:55;6.70;45.70
27492;DHT22;14927;51.210;6.838;2023-03-01T00:06:41;6.70;45.60
27492;DHT22;14927;51.210;6.838;2023-03-01T00:09:27;6.60;45.60
27492;DHT22;14927;51.210;6.838;2023-03-01T00:12:11;6.60;45.60
27492;DHT22;14927;51.210;6.838;2023-03-01T00:14:56;6.60;45.70
27492;DHT22;14927;51.210;6.838;2023-03-01T00:17:40;6.60;45.80
27492;DHT22;14927;51.210;6.838;2023-03-01T00:20:25;6.60;45.80
27492;DHT22;14927;51.210;6.838;2023-03-01T00:23:10;6.70;46.00
27492;DHT22;14927;51.210;6.838;2023-03-01T00:25:55;6.50;46.00
27492;DHT22;14927;51.210;6.838;2023-03-01T00:28:41;6.50;46.10
27492;DHT22;14927;51.210;6.838;2023-03-01T00:31:29;6.30;46.10
27492;DHT22;14927;51.210;6.838;2023-03-01T00:34:14;6.40;46.30
27492;DHT22;14927;51.210;6.838;2023-03-01T00:36:59;6.40;46.40
27492;DHT22;14927;51.210;6.838;2023-03-01T00:39:49;6.30;46.40
27492;DHT22;14927;51.210;6.838;2023-03-01T00:42:34;6.30;46.40
27492;DHT22;14927;51.210;6.838;2023-03-01T00:45:19;6.30;46.60
27492;DHT22;14927;51.210;6.838;2023-03-01T00:48:04;6.30;46.60
27492;DHT22;14927;51.210;6.838;2023-03-01T00:50:49;6.20;47.30
27492;DHT22;14927;51.210;6.838;2023-03-01T00:53:34;6.20;46.80
27492;DHT22;14927;51.210;6.838;2023-03-01T00:56:19;6.20;46.90
27492;DHT22;14927;51.210;6.838;2023-03-01T00:59:04;6.30;47.00
27492;DHT22;14927;51.210;6.838;2023-03-01T01:01:48;6.10;47.00
27492;DHT22;14927;51.210;6.838;2023-03-01T01:04:33;6.10;47.10
27492;DHT22;14927;51.210;6.838;2023-03-01T01:07:18;6.10;47.10
27492;DHT22;14927;51.210;6.838;2023-03-01T01:10:04;6.00;47.20
27492;DHT22;14927;51.210;6.838;2023-03-01T01:12:49;6.00;47.20
27492;DHT22;14927;51.210;6.838;2023-03-01T01:15:34;6.00;47.30
27492;DHT22;14927;51.210;6.838;2023-03-01T01:18:19;5.90;47.50
27492;DHT22;14927;51.210;6.838;2023-03-01T01:21:09;5.90;47.60
27492;DHT22;14927;51.210;6.838;2023-03-01T01:23:56;5.90;47.80
27492;DHT22;14927;51.210;6.838;2023-03-01T01:26:41;5.80;47.80
27492;DHT22;14927;51.210;6.838;2023-03-01T01:29:26;5.80;47.80
27492;DHT22;14927;51.210;6.838;2023-03-01T01:32:11;5.80;47.90
27492;DHT22;14927;51.210;6.838;2023-03-01T01:34:55;5.80;48.00
27492;DHT22;14927;51.210;6.838;2023-03-01T01:37:40;5.80;48.00
27492;DHT22;14927;51.210;6.838;2023-03-01T01:40:25;5.80;48.00
27492;DHT22;14927;51.210;6.838;2023-03-01T01:43:32;5.70;48.00
27492;DHT22;14927;51.210;6.838;2023-03-01T01:46:32;5.70;48.40
27492;DHT22;14927;51.210;6.838;2023-03-01T01:52:20;5.70;48.10
27492;DHT22;14927;51.210;6.838;2023-03-01T01:55:14;5.60;48.10
27492;DHT22;14927;51.210;6.838;2023-03-01T01:58:08;5.70;48.20
27492;DHT22;14927;51.210;6.838;2023-03-01T02:00:54;5.60;48.30
27492;DHT22;14927;51.210;6.838;2023-03-01T02:03:41;5.50;48.30
27492;DHT22;14927;51.210;6.838;2023-03-01T02:06:54;5.50;48.40
27492;DHT22;14927;51.210;6.838;2023-03-01T02:09:48;5.50;48.70
27492;DHT22;14927;51.210;6.838;2023-03-01T02:12:34;5.50;48.40
27492;DHT22;14927;51.210;6.838;2023-03-01T02:15:20;5.50;49.10
27492;DHT22;14927;51.210;6.838;2023-03-01T02:18:05;5.40;48.50
27492;DHT22;14927;51.210;6.838;2023-03-01T02:21:08;5.50;48.70
27492;DHT22;14927;51.210;6.838;2023-03-01T02:24:35;5.50;48.90
27492;DHT22;14927;51.210;6.838;2023-03-01T02:28:00;5.40;49.50
27492;DHT22;14927;51.210;6.838;2023-03-01T02:30:55;5.50;48.70
27492;DHT22;14927;51.210;6.838;2023-03-01T02:33:59;5.50;48.60
27492;DHT22;14927;51.210;6.838;2023-03-01T02:36:51;5.40;48.60
27492;DHT22;14927;51.210;6.838;2023-03-01T02:39:41;5.40;48.70
27492;DHT22;14927;51.210;6.838;2023-03-01T02:42:33;5.40;48.80
27492;DHT22;14927;51.210;6.838;2023-03-01T02:45:21;5.30;48.90
27492;DHT22;14927;51.210;6.838;2023-03-01T02:48:05;5.30;48.90
27492;DHT22;14927;51.210;6.838;2023-03-01T02:51:41;5.30;49.00
27492;DHT22;14927;51.210;6.838;2023-03-01T02:54:08;5.30;49.20
27492;DHT22;14927;51.210;6.838;2023-03-01T02:56:57;5.30;49.10
27492;DHT22;14927;51.210;6.838;2023-03-01T02:59:42;5.30;49.10
27492;DHT22;14927;51.210;6.838;2023-03-01T03:02:29;5.30;49.20
27492;DHT22;14927;51.210;6.838;2023-03-01T03:05:26;5.20;49.20
27492;DHT22;14927;51.210;6.838;2023-03-01T03:08:15;5.30;49.30
27492;DHT22;14927;51.210;6.838;2023-03-01T03:11:07;5.20;49.20
27492;DHT22;14927;51.210;6.838;2023-03-01T03:13:52;5.20;49.30
27492;DHT22;14927;51.210;6.838;2023-03-01T03:16:37;5.20;49.30
27492;DHT22;14927;51.210;6.838;2023-03-01T03:19:25;5.30;49.40
27492;DHT22;14927;51.210;6.838;2023-03-01T03:22:10;5.20;49.30
27492;DHT22;14927;51.210;6.838;2023-03-01T03:24:54;5.10;49.40
27492;DHT22;14927;51.210;6.838;2023-03-01T03:27:41;5.20;49.50
27492;DHT22;14927;51.210;6.838;2023-03-01T03:30:29;5.10;49.60
27492;DHT22;14927;51.210;6.838;2023-03-01T03:33:15;5.10;49.60
27492;DHT22;14927;51.210;6.838;2023-03-01T03:35:59;5.10;49.70
27492;DHT22;14927;51.210;6.838;2023-03-01T03:38:45;5.10;49.70
27492;DHT22;14927;51.210;6.838;2023-03-01T03:41:29;5.00;49.70
27492;DHT22;14927;51.210;6.838;2023-03-01T03:44:14;5.00;49.80
27492;DHT22;14927;51.210;6.838;2023-03-01T03:46:59;5.00;49.90
27492;DHT22;14927;51.210;6.838;2023-03-01T03:49:43;5.00;49.90
27492;DHT22;14927;51.210;6.838;2023-03-01T03:52:28;4.90;49.90
27492;DHT22;14927;51.210;6.838;2023-03-01T03:55:13;4.90;50.00
27492;DHT22;14927;51.210;6.838;2023-03-01T03:57:58;4.90;50.10
27492;DHT22;14927;51.210;6.838;2023-03-01T04:00:48;5.00;50.20
27492;DHT22;14927;51.210;6.838;2023-03-01T04:03:35;4.80;50.10
27492;DHT22;14927;51.210;6.838;2023-03-01T04:06:19;4.90;50.20
27492;DHT22;14927;51.210;6.838;2023-03-01T04:09:04;4.90;50.20
27492;DHT22;14927;51.210;6.838;2023-03-01T04:11:49;4.80;50.20
27492;DHT22;14927;51.210;6.838;2023-03-01T04:14:34;4.80;50.30
27492;DHT22;14927;51.210;6.838;2023-03-01T04:17:18;4.80;50.30
27492;DHT22;14927;51.210;6.838;2023-03-01T04:20:03;4.80;50.30
27492;DHT22;14927;51.210;6.838;2023-03-01T04:22:49;4.70;50.40
27492;DHT22;14927;51.210;6.838;2023-03-01T04:25:53;4.70;50.40
27492;DHT22;14927;51.210;6.838;2023-03-01T04:28:40;4.70;50.60
27492;DHT22;14927;51.210;6.838;2023-03-01T04:31:29;4.70;50.40
27492;DHT22;14927;51.210;6.838;2023-03-01T04:34:13;4.80;50.90
27492;DHT22;14927;51.210;6.838;2023-03-01T04:36:58;4.70;50.10
27492;DHT22;14927;51.210;6.838;2023-03-01T04:39:43;4.70;50.30
27492;DHT22;14927;51.210;6.838;2023-03-01T04:42:31;4.70;50.40
27492;DHT22;14927;51.210;6.838;2023-03-01T04:45:15;4.70;50.50
27492;DHT22;14927;51.210;6.838;2023-03-01T04:48:00;4.60;50.60
27492;DHT22;14927;51.210;6.838;2023-03-01T04:50:45;4.60;50.60
27492;DHT22;14927;51.210;6.838;2023-03-01T04:53:30;4.60;50.70
27492;DHT22;14927;51.210;6.838;2023-03-01T04:56:15;4.70;50.70
27492;DHT22;14927;51.210;6.838;2023-03-01T04:59:01;4.60;50.70
27492;DHT22;14927;51.210;6.838;2023-03-01T05:01:50;4.70;50.70
27492;DHT22;14927;51.210;6.838;2023-03-01T05:04:36;4.60;50.70
27492;DHT22;14927;51.210;6.838;2023-03-01T05:07:20;4.60;50.70
27492;DHT22;14927;51.210;6.838;2023-03-01T05:10:05;4.70;50.70
27492;DHT22;14927;51.210;6.838;2023-03-01T05:12:50;4.60;50.70
27492;DHT22;14927;51.210;6.838;2023-03-01T05:15:36;4.60;50.70
27492;DHT22;14927;51.210;6.838;2023-03-01T05:18:21;4.70;50.80
27492;DHT22;14927;51.210;6.838;2023-03-01T05:21:12;4.70;50.70
27492;DHT22;14927;51.210;6.838;2023-03-01T05:23:59;4.90;50.80
27492;DHT22;14927;51.210;6.838;2023-03-01T05:26:44;4.70;50.60
27492;DHT22;14927;51.210;6.838;2023-03-01T05:29:30;4.70;50.60
27492;DHT22;14927;51.210;6.838;2023-03-01T05:32:18;4.80;50.70
27492;DHT22;14927;51.210;6.838;2023-03-01T05:35:03;4.70;50.60
27492;DHT22;14927;51.210;6.838;2023-03-01T05:37:49;4.70;50.60
27492;DHT22;14927;51.210;6.838;2023-03-01T05:40:34;4.60;51.20
27492;DHT22;14927;51.210;6.838;2023-03-01T05:43:19;4.60;51.30
27492;DHT22;14927;51.210;6.838;2023-03-01T05:46:10;4.60;50.70
27492;DHT22;14927;51.210;6.838;2023-03-01T05:48:59;4.60;50.70
27492;DHT22;14927;51.210;6.838;2023-03-01T05:51:48;4.60;50.70
27492;DHT22;14927;51.210;6.838;2023-03-01T05:54:34;4.70;50.80
27492;DHT22;14927;51.210;6.838;2023-03-01T05:57:18;4.60;50.70
27492;DHT22;14927;51.210;6.838;2023-03-01T06:00:04;4.60;50.70
27492;DHT22;14927;51.210;6.838;2023-03-01T06:02:50;4.60;50.80
27492;DHT22;14927;51.210;6.838;2023-03-01T06:05:35;4.60;50.80
27492;DHT22;14927;51.210;6.838;2023-03-01T06:08:20;4.60;50.80
27492;DHT22;14927;51.210;6.838;2023-03-01T06:11:06;4.70;50.80
27492;DHT22;14927;51.210;6.838;2023-03-01T06:13:51;4.60;50.70
27492;DHT22;14927;51.210;6.838;2023-03-01T06:16:35;4.60;50.80
27492;DHT22;14927;51.210;6.838;2023-03-01T06:19:20;4.60;50.80
27492;DHT22;14927;51.210;6.838;2023-03-01T06:22:05;4.70;50.80
27492;DHT22;14927;51.210;6.838;2023-03-01T06:24:49;4.80;50.90
27492;DHT22;14927;51.210;6.838;2023-03-01T06:27:34;4.60;50.80
27492;DHT22;14927;51.210;6.838;2023-03-01T06:30:20;4.80;50.80
27492;DHT22;14927;51.210;6.838;2023-03-01T06:33:05;4.70;50.80
27492;DHT22;14927;51.210;6.838;2023-03-01T06:35:51;4.70;50.80
27492;DHT22;14927;51.210;6.838;2023-03-01T06:38:36;4.70;50.80
27492;DHT22;14927;51.210;6.838;2023-03-01T06:41:20;4.70;50.80
27492;DHT22;14927;51.210;6.838;2023-03-01T06:44:05;4.70;50.80
27492;DHT22;14927;51.210;6.838;2023-03-01T06:46:49;4.70;50.80
27492;DHT22;14927;51.210;6.838;2023-03-01T06:49:34;4.70;50.80
27492;DHT22;14927;51.210;6.838;2023-03-01T06:52:19;5.00;51.00
27492;DHT22;14927;51.210;6.838;2023-03-01T06:55:04;5.00;50.90
27492;DHT22;14927;51.210;6.838;2023-03-01T06:57:48;4.70;50.70
27492;DHT22;14927;51.210;6.838;2023-03-01T07:00:38;4.70;50.70
27492;DHT22;14927;51.210;6.838;2023-03-01T07:03:24;4.80;50.80
27492;DHT22;14927;51.210;6.838;2023-03-01T07:06:09;4.80;50.80
27492;DHT22;14927;51.210;6.838;2023-03-01T07:08:54;4.80;50.70
27492;DHT22;14927;51.210;6.838;2023-03-01T07:11:39;4.80;50.80
27492;DHT22;14927;51.210;6.838;2023-03-01T07:14:24;4.80;50.70
27492;DHT22;14927;51.210;6.838;2023-03-01T07:17:09;4.90;50.80
27492;DHT22;14927;51.210;6.838;2023-03-01T07:19:54;4.90;50.70
27492;DHT22;14927;51.210;6.838;2023-03-01T07:22:41;4.90;50.60
27492;DHT22;14927;51.210;6.838;2023-03-01T07:25:26;4.90;50.60
27492;DHT22;14927;51.210;6.838;2023-03-01T07:28:11;5.00;50.60
27492;DHT22;14927;51.210;6.838;2023-03-01T07:31:00;5.00;50.80
27492;DHT22;14927;51.210;6.838;2023-03-01T07:33:46;5.20;51.40
27492;DHT22;14927;51.210;6.838;2023-03-01T07:36:34;5.20;51.20
27492;DHT22;14927;51.210;6.838;2023-03-01T07:39:18;5.30;50.80
27492;DHT22;14927;51.210;6.838;2023-03-01T07:42:03;5.40;50.60
27492;DHT22;14927;51.210;6.838;2023-03-01T07:44:48;5.50;50.30
27492;DHT22;14927;51.210;6.838;2023-03-01T07:47:34;5.60;50.20
27492;DHT22;14927;51.210;6.838;2023-03-01T07:50:19;5.60;50.10
27492;DHT22;14927;51.210;6.838;2023-03-01T07:53:06;5.70;50.00
27492;DHT22;14927;51.210;6.838;2023-03-01T07:58:59;5.70;49.70
27492;DHT22;14927;51.210;6.838;2023-03-01T08:01:43;5.80;49.70
27492;DHT22;14927;51.210;6.838;2023-03-01T08:04:28;5.80;49.70
27492;DHT22;14927;51.210;6.838;2023-03-01T08:07:12;6.20;49.70
27492;DHT22;14927;51.210;6.838;2023-03-01T08:09:57;6.00;49.50
27492;DHT22;14927;51.210;6.838;2023-03-01T08:12:41;6.10;49.50
27492;DHT22;14927;51.210;6.838;2023-03-01T08:15:26;6.10;49.40
27492;DHT22;14927;51.210;6.838;2023-03-01T08:18:11;6.10;49.30
27492;DHT22;14927;51.210;6.838;2023-03-01T08:20:56;6.20;49.20
27492;DHT22;14927;51.210;6.838;2023-03-01T08:23:45;6.50;49.20
27492;DHT22;14927;51.210;6.838;2023-03-01T08:26:29;6.40;49.00
27492;DHT22;14927;51.210;6.838;2023-03-01T08:29:14;6.40;48.90
27492;DHT22;14927;51.210;6.838;2023-03-01T08:31:59;6.50;48.90
27492;DHT22;14927;51.210;6.838;2023-03-01T08:34:46;6.50;48.70
27492;DHT22;14927;51.210;6.838;2023-03-01T08:37:31;6.60;48.60
27492;DHT22;14927;51.210;6.838;2023-03-01T08:40:17;6.70;48.40
27492;DHT22;14927;51.210;6.838;2023-03-01T08:43:01;6.70;48.10
27492;DHT22;14927;51.210;6.838;2023-03-01T08:45:48;6.80;48.00
27492;DHT22;14927;51.210;6.838;2023-03-01T08:48:34;6.80;48.40
27492;DHT22;14927;51.210;6.838;2023-03-01T08:51:20;6.90;47.70
27492;DHT22;14927;51.210;6.838;2023-03-01T08:54:18;7.00;47.60
27492;DHT22;14927;51.210;6.838;2023-03-01T08:57:04;7.10;47.30
27492;DHT22;14927;51.210;6.838;2023-03-01T08:59:49;7.10;47.30
27492;DHT22;14927;51.210;6.838;2023-03-01T09:02:33;7.20;47.20
27492;DHT22;14927;51.210;6.838;2023-03-01T09:05:18;7.30;47.10
27492;DHT22;14927;51.210;6.838;2023-03-01T09:08:04;7.30;47.00
27492;DHT22;14927;51.210;6.838;2023-03-01T09:10:49;7.40;46.90
27492;DHT22;14927;51.210;6.838;2023-03-01T09:13:34;7.40;46.70
27492;DHT22;14927;51.210;6.838;2023-03-01T09:16:20;7.50;46.70
27492;DHT22;14927;51.210;6.838;2023-03-01T09:19:05;7.50;46.50
27492;DHT22;14927;51.210;6.838;2023-03-01T09:21:50;7.60;46.50
27492;DHT22;14927;51.210;6.838;2023-03-01T09:24:38;7.60;46.50
27492;DHT22;14927;51.210;6.838;2023-03-01T09:27:23;7.70;46.30
27492;DHT22;14927;51.210;6.838;2023-03-01T09:30:10;7.70;46.20
27492;DHT22;14927;51.210;6.838;2023-03-01T09:32:56;7.80;46.20
27492;DHT22;14927;51.210;6.838;2023-03-01T09:35:41;7.90;46.00
27492;DHT22;14927;51.210;6.838;2023-03-01T09:38:30;7.90;45.70
27492;DHT22;14927;51.210;6.838;2023-03-01T09:41:32;8.00;45.50
27492;DHT22;14927;51.210;6.838;2023-03-01T09:44:24;8.00;45.00
27492;DHT22;14927;51.210;6.838;2023-03-01T09:47:28;8.10;45.10
27492;DHT22;14927;51.210;6.838;2023-03-01T09:50:19;8.20;44.50
27492;DHT22;14927;51.210;6.838;2023-03-01T09:53:15;8.30;44.40
27492;DHT22;14927;51.210;6.838;2023-03-01T09:56:12;8.30;44.20
27492;DHT22;14927;51.210;6.838;2023-03-01T10:02:24;8.40;44.00
27492;DHT22;14927;51.210;6.838;2023-03-01T10:11:26;8.60;43.40
27492;DHT22;14927;51.210;6.838;2023-03-01T10:14:39;8.60;43.40
27492;DHT22;14927;51.210;6.838;2023-03-01T10:17:48;8.60;43.10
27492;DHT22;14927;51.210;6.838;2023-03-01T10:20:48;8.70;42.90
27492;DHT22;14927;51.210;6.838;2023-03-01T10:24:12;8.70;42.90
27492;DHT22;14927;51.210;6.838;2023-03-01T10:27:04;8.80;42.60
27492;DHT22;14927;51.210;6.838;2023-03-01T10:30:10;8.80;42.80
27492;DHT22;14927;51.210;6.838;2023-03-01T10:33:01;8.90;42.40
27492;DHT22;14927;51.210;6.838;2023-03-01T10:35:47;9.00;42.50
27492;DHT22;14927;51.210;6.838;2023-03-01T10:38:49;9.00;42.30
27492;DHT22;14927;51.210;6.838;2023-03-01T10:42:02;9.10;41.70
27492;DHT22;14927;51.210;6.838;2023-03-01T10:44:49;9.20;41.30
27492;DHT22;14927;51.210;6.838;2023-03-01T10:47:35;9.30;41.70
27492;DHT22;14927;51.210;6.838;2023-03-01T10:50:22;9.30;41.30
27492;DHT22;14927;51.210;6.838;2023-03-01T10:56:13;9.50;40.30
27492;DHT22;14927;51.210;6.838;2023-03-01T10:58:59;9.50;40.50
27492;DHT22;14927;51.210;6.838;2023-03-01T11:01:45;9.60;40.50
27492;DHT22;14927;51.210;6.838;2023-03-01T11:04:30;9.70;40.50
27492;DHT22;14927;51.210;6.838;2023-03-01T11:07:15;9.70;40.60
27492;DHT22;14927;51.210;6.838;2023-03-01T11:10:01;9.80;40.70
27492;DHT22;14927;51.210;6.838;2023-03-01T11:13:17;9.90;40.60
27492;DHT22;14927;51.210;6.838;2023-03-01T11:16:06;10.00;39.90
27492;DHT22;14927;51.210;6.838;2023-03-01T11:25:04;10.20;39.60
27492;DHT22;14927;51.210;6.838;2023-03-01T11:27:52;10.30;39.60
27492;DHT22;14927;51.210;6.838;2023-03-01T11:31:02;10.40;39.50
27492;DHT22;14927;51.210;6.838;2023-03-01T11:34:01;10.40;39.10
27492;DHT22;14927;51.210;6.838;2023-03-01T11:36:59;10.50;39.40
27492;DHT22;14927;51.210;6.838;2023-03-01T11:39:58;10.80;39.30
27492;DHT22;14927;51.210;6.838;2023-03-01T11:42:57;10.70;39.20
27492;DHT22;14927;51.210;6.838;2023-03-01T12:39:21;14.10;35.00
27492;DHT22;14927;51.210;6.838;2023-03-01T12:49:13;15.00;33.20
27492;DHT22;14927;51.210;6.838;2023-03-01T12:52:37;15.30;33.30
27492;DHT22;14927;51.210;6.838;2023-03-01T12:55:35;15.60;32.10
27492;DHT22;14927;51.210;6.838;2023-03-01T12:58:35;15.90;32.80
27492;DHT22;14927;51.210;6.838;2023-03-01T13:11:06;17.10;34.00
27492;DHT22;14927;51.210;6.838;2023-03-01T13:17:31;17.60;30.40
27492;DHT22;14927;51.210;6.838;2023-03-01T13:20:19;17.80;29.80
27492;DHT22;14927;51.210;6.838;2023-03-01T13:26:17;18.40;30.20
27492;DHT22;14927;51.210;6.838;2023-03-01T13:29:03;18.70;29.00
27492;DHT22;14927;51.210;6.838;2023-03-01T13:34:41;19.20;29.00
27492;DHT22;14927;51.210;6.838;2023-03-01T13:37:36;19.40;27.80
27492;DHT22;14927;51.210;6.838;2023-03-01T13:43:27;19.90;27.60
27492;DHT22;14927;51.210;6.838;2023-03-01T13:46:23;20.10;26.10
27492;DHT22;14927;51.210;6.838;2023-03-01T13:49:16;20.40;27.20
27492;DHT22;14927;51.210;6.838;2023-03-01T13:52:05;20.60;26.40
27492;DHT22;14927;51.210;6.838;2023-03-01T13:54:50;20.80;26.70
27492;DHT22;14927;51.210;6.838;2023-03-01T13:57:37;21.00;26.50
27492;DHT22;14927;51.210;6.838;2023-03-01T14:00:37;21.20;26.10
27492;DHT22;14927;51.210;6.838;2023-03-01T14:03:23;21.40;25.20
27492;DHT22;14927;51.210;6.838;2023-03-01T14:06:09;21.60;25.60
27492;DHT22;14927;51.210;6.838;2023-03-01T14:09:24;21.80;25.60
27492;DHT22;14927;51.210;6.838;2023-03-01T14:15:25;22.30;24.70
27492;DHT22;14927;51.210;6.838;2023-03-01T14:18:14;22.50;24.40
27492;DHT22;14927;51.210;6.838;2023-03-01T14:21:08;22.70;24.70
27492;DHT22;14927;51.210;6.838;2023-03-01T14:23:53;22.90;23.90
27492;DHT22;14927;51.210;6.838;2023-03-01T14:26:38;23.10;24.10
27492;DHT22;14927;51.210;6.838;2023-03-01T14:29:35;23.40;24.00
27492;DHT22;14927;51.210;6.838;2023-03-01T14:32:25;23.60;22.70
27492;DHT22;14927;51.210;6.838;2023-03-01T14:35:51;23.90;23.40
27492;DHT22;14927;51.210;6.838;2023-03-01T14:38:40;24.20;22.40
27492;DHT22;14927;51.210;6.838;2023-03-01T14:41:27;24.40;22.90
27492;DHT22;14927;51.210;6.838;2023-03-01T14:44:23;24.60;25.20
27492;DHT22;14927;51.210;6.838;2023-03-01T14:47:16;24.80;21.80
27492;DHT22;14927;51.210;6.838;2023-03-01T14:50:18;25.10;21.50
27492;DHT22;14927;51.210;6.838;2023-03-01T14:53:21;25.20;21.70
27492;DHT22;14927;51.210;6.838;2023-03-01T14:56:16;25.30;20.90
27492;DHT22;14927;51.210;6.838;2023-03-01T14:59:02;25.50;20.30
27492;DHT22;14927;51.210;6.838;2023-03-01T15:01:48;25.60;20.80
27492;DHT22;14927;51.210;6.838;2023-03-01T15:04:33;25.60;20.20
27492;DHT22;14927;51.210;6.838;2023-03-01T15:07:18;25.60;19.90
27492;DHT22;14927;51.210;6.838;2023-03-01T15:10:06;25.30;19.40
27492;DHT22;14927;51.210;6.838;2023-03-01T15:12:58;25.00;19.30
27492;DHT22;14927;51.210;6.838;2023-03-01T15:16:12;24.60;19.30
27492;DHT22;14927;51.210;6.838;2023-03-01T15:19:04;24.00;19.20
27492;DHT22;14927;51.210;6.838;2023-03-01T15:21:50;23.50;19.40
27492;DHT22;14927;51.210;6.838;2023-03-01T15:24:35;23.10;19.80
27492;DHT22;14927;51.210;6.838;2023-03-01T15:27:23;22.60;20.20
27492;DHT22;14927;51.210;6.838;2023-03-01T15:33:26;21.60;20.50
27492;DHT22;14927;51.210;6.838;2023-03-01T15:36:52;21.20;20.80
27492;DHT22;14927;51.210;6.838;2023-03-01T15:48:20;19.70;22.90
27492;DHT22;14927;51.210;6.838;2023-03-01T15:51:10;19.40;22.40
27492;DHT22;14927;51.210;6.838;2023-03-01T15:54:00;19.10;22.60
27492;DHT22;14927;51.210;6.838;2023-03-01T15:56:47;18.80;22.70
27492;DHT22;14927;51.210;6.838;2023-03-01T15:59:31;18.50;23.00
27492;DHT22;14927;51.210;6.838;2023-03-01T16:02:16;18.30;23.10
27492;DHT22;14927;51.210;6.838;2023-03-01T16:05:01;18.00;23.30
27492;DHT22;14927;51.210;6.838;2023-03-01T16:07:45;17.80;23.50
27492;DHT22;14927;51.210;6.838;2023-03-01T16:10:30;17.50;23.70
27492;DHT22;14927;51.210;6.838;2023-03-01T16:13:16;17.30;23.90
27492;DHT22;14927;51.210;6.838;2023-03-01T16:16:01;17.10;24.10
27492;DHT22;14927;51.210;6.838;2023-03-01T16:18:46;16.80;24.20
27492;DHT22;14927;51.210;6.838;2023-03-01T16:21:31;16.60;24.60
27492;DHT22;14927;51.210;6.838;2023-03-01T16:24:15;16.40;24.70
27492;DHT22;14927;51.210;6.838;2023-03-01T16:27:02;16.30;25.00
27492;DHT22;14927;51.210;6.838;2023-03-01T16:29:46;16.10;25.20
27492;DHT22;14927;51.210;6.838;2023-03-01T16:32:31;15.90;25.40
27492;DHT22;14927;51.210;6.838;2023-03-01T16:35:18;15.70;25.60
27492;DHT22;14927;51.210;6.838;2023-03-01T16:38:04;15.60;25.90
27492;DHT22;14927;51.210;6.838;2023-03-01T16:40:50;15.50;26.00
27492;DHT22;14927;51.210;6.838;2023-03-01T16:43:35;15.30;26.10
27492;DHT22;14927;51.210;6.838;2023-03-01T16:46:23;15.20;26.20
27492;DHT22;14927;51.210;6.838;2023-03-01T16:49:12;15.10;26.40
27492;DHT22;14927;51.210;6.838;2023-03-01T16:51:57;15.00;26.50
27492;DHT22;14927;51.210;6.838;2023-03-01T16:54:42;14.90;26.60
27492;DHT22;14927;51.210;6.838;2023-03-01T16:57:27;14.80;26.70
27492;DHT22;14927;51.210;6.838;2023-03-01T17:00:12;14.60;26.80
27492;DHT22;14927;51.210;6.838;2023-03-01T17:02:57;14.50;27.10
27492;DHT22;14927;51.210;6.838;2023-03-01T17:05:42;14.40;27.30
27492;DHT22;14927;51.210;6.838;2023-03-01T17:08:26;14.30;27.40
27492;DHT22;14927;51.210;6.838;2023-03-01T17:11:16;14.20;27.50
27492;DHT22;14927;51.210;6.838;2023-03-01T17:14:02;14.10;27.70
27492;DHT22;14927;51.210;6.838;2023-03-01T17:16:46;14.00;27.80
27492;DHT22;14927;51.210;6.838;2023-03-01T17:19:31;13.90;28.00
27492;DHT22;14927;51.210;6.838;2023-03-01T17:22:16;13.80;28.10
27492;DHT22;14927;51.210;6.838;2023-03-01T17:25:00;13.70;28.30
27492;DHT22;14927;51.210;6.838;2023-03-01T17:27:45;13.60;28.40
27492;DHT22;14927;51.210;6.838;2023-03-01T17:30:30;13.60;28.60
27492;DHT22;14927;51.210;6.838;2023-03-01T17:33:15;13.50;28.70
27492;DHT22;14927;51.210;6.838;2023-03-01T17:36:00;13.40;28.80
27492;DHT22;14927;51.210;6.838;2023-03-01T17:38:44;13.30;28.90
27492;DHT22;14927;51.210;6.838;2023-03-01T17:41:30;13.20;29.00
27492;DHT22;14927;51.210;6.838;2023-03-01T17:44:14;13.10;29.20
27492;DHT22;14927;51.210;6.838;2023-03-01T17:46:59;13.00;29.30
27492;DHT22;14927;51.210;6.838;2023-03-01T17:49:44;12.90;29.40
27492;DHT22;14927;51.210;6.838;2023-03-01T17:52:29;12.80;29.50
27492;DHT22;14927;51.210;6.838;2023-03-01T17:55:14;12.80;29.70
27492;DHT22;14927;51.210;6.838;2023-03-01T17:57:59;12.70;29.80
27492;DHT22;14927;51.210;6.838;2023-03-01T18:00:44;12.60;29.90
27492;DHT22;14927;51.210;6.838;2023-03-01T18:03:28;12.60;30.00
27492;DHT22;14927;51.210;6.838;2023-03-01T18:06:15;12.50;30.10
27492;DHT22;14927;51.210;6.838;2023-03-01T18:09:02;12.50;30.30
27492;DHT22;14927;51.210;6.838;2023-03-01T18:11:46;12.40;30.30
27492;DHT22;14927;51.210;6.838;2023-03-01T18:14:31;12.30;30.50
27492;DHT22;14927;51.210;6.838;2023-03-01T18:17:17;12.30;30.70
27492;DHT22;14927;51.210;6.838;2023-03-01T18:20:01;12.20;30.80
27492;DHT22;14927;51.210;6.838;2023-03-01T18:22:46;12.10;31.00
27492;DHT22;14927;51.210;6.838;2023-03-01T18:25:31;12.10;31.30
27492;DHT22;14927;51.210;6.838;2023-03-01T18:28:16;12.00;31.30
27492;DHT22;14927;51.210;6.838;2023-03-01T18:31:04;11.90;31.40
27492;DHT22;14927;51.210;6.838;2023-03-01T18:33:53;11.90;31.50
27492;DHT22;14927;51.210;6.838;2023-03-01T18:36:38;11.80;31.60
27492;DHT22;14927;51.210;6.838;2023-03-01T18:39:23;11.80;31.60
27492;DHT22;14927;51.210;6.838;2023-03-01T18:42:08;11.80;31.70
27492;DHT22;14927;51.210;6.838;2023-03-01T18:44:52;11.70;31.70
27492;DHT22;14927;51.210;6.838;2023-03-01T18:47:37;11.70;31.70
27492;DHT22;14927;51.210;6.838;2023-03-01T18:50:21;11.70;31.80
27492;DHT22;14927;51.210;6.838;2023-03-01T18:53:06;11.60;31.90
27492;DHT22;14927;51.210;6.838;2023-03-01T18:55:51;11.60;32.00
27492;DHT22;14927;51.210;6.838;2023-03-01T18:58:36;11.50;32.00
27492;DHT22;14927;51.210;6.838;2023-03-01T19:01:26;11.50;32.10
27492;DHT22;14927;51.210;6.838;2023-03-01T19:04:11;11.40;32.10
27492;DHT22;14927;51.210;6.838;2023-03-01T19:06:56;11.40;32.10
27492;DHT22;14927;51.210;6.838;2023-03-01T19:09:40;11.30;32.30
27492;DHT22;14927;51.210;6.838;2023-03-01T19:12:25;11.20;32.40
27492;DHT22;14927;51.210;6.838;2023-03-01T19:15:11;11.20;32.50
27492;DHT22;14927;51.210;6.838;2023-03-01T19:17:55;11.20;32.50
27492;DHT22;14927;51.210;6.838;2023-03-01T19:20:41;11.20;32.60
27492;DHT22;14927;51.210;6.838;2023-03-01T19:23:27;11.10;32.70
27492;DHT22;14927;51.210;6.838;2023-03-01T19:26:15;11.10;32.90
27492;DHT22;14927;51.210;6.838;2023-03-01T19:29:01;11.00;32.90
27492;DHT22;14927;51.210;6.838;2023-03-01T19:31:48;11.00;33.00
27492;DHT22;14927;51.210;6.838;2023-03-01T19:34:33;11.00;33.10
27492;DHT22;14927;51.210;6.838;2023-03-01T19:37:18;11.00;33.20
27492;DHT22;14927;51.210;6.838;2023-03-01T19:40:03;11.00;33.30
27492;DHT22;14927;51.210;6.838;2023-03-01T19:42:48;10.90;33.40
27492;DHT22;14927;51.210;6.838;2023-03-01T19:45:33;10.90;33.50
27492;DHT22;14927;51.210;6.838;2023-03-01T19:48:18;10.90;33.60
27492;DHT22;14927;51.210;6.838;2023-03-01T19:51:06;10.90;33.70
27492;DHT22;14927;51.210;6.838;2023-03-01T19:53:51;10.80;33.80
27492;DHT22;14927;51.210;6.838;2023-03-01T19:56:39;10.80;33.90